マガダン の空港の天気 - METARとTAF

マガダン・ソコル空港 ( UHMM / GDX ) - ロシア マガダン
飛行場実況気象(Metar)
観測時間10/22 23:00 MAGT (10/22 12:00 UTC)
風向・風速東 1m/s
視程10km以上
天気現象
全天を覆う雲 雲底高度 1010m
気温-1℃
湿度80%
気圧1025hPa
METARUHMM 221200Z 09001MPS 9999 OVC033 M01/M04 Q1025 RMK QFE754 R28/11003MPS
過去の天気等 Google飛行場航空写真 Wunderground天気予報

過去48時間のMETAR

飛行場予報(TAF)
発表時間: 10/22 21:35 MAGT (10/22 10:35 UTC)
予報対象時間: 22日23時 MAGT ~ 24日5時 MAGT
風向・風速東 3m/s 瞬間風速 10m/s
視程10km以上
全天の8割程度の積乱雲 雲底高度 910m
22日23時 MAGT ~ 24日5時 MAGT に一時的に
視程3100m
天気現象弱いしゅう雪雨
全天を覆う雲 鉛直視程 340m
TAF UHMM 221035Z 2212/2318 10003G10MPS 9999 BKN030CB
TEMPO 2212/2318 3100 -SHSNRA VV011